Terminal Aerodrome Forecast
Issued by NWS Grand Forks, ND

Home | Current Version | Previous Version | Text Only | Print | Product List | Glossary On
Versions: 1 2 3 4 5 6 7 8 9 10 11 12 13 14 15 16
000
FTUS43 KFGF 161503 AAA
TAFGFK
TAF AMD
KGFK 161503Z 1615/1712 34012KT 4SM BR OVC007
     FM161800 35010KT P6SM VCSH OVC008
     FM162100 34009KT P6SM OVC010
     FM170300 28008KT P6SM BKN010=

USA.gov is the U.S. government's official web portal to all federal, state and local government web resources and services.